sensor_id;sensor_type;location;lat;lon;timestamp;temperature;humidity
15481;DHT22;7842;50.904;6.670;2024-03-06T00:01:51;7.90;99.90
15481;DHT22;7842;50.904;6.670;2024-03-06T00:04:17;7.90;99.90
15481;DHT22;7842;50.904;6.670;2024-03-06T00:06:42;8.00;99.90
15481;DHT22;7842;50.904;6.670;2024-03-06T00:09:08;8.00;99.90
15481;DHT22;7842;50.904;6.670;2024-03-06T00:11:34;7.90;99.90
15481;DHT22;7842;50.904;6.670;2024-03-06T00:14:03;7.90;99.90
15481;DHT22;7842;50.904;6.670;2024-03-06T00:16:31;7.90;99.90
15481;DHT22;7842;50.904;6.670;2024-03-06T00:18:56;7.90;99.90
15481;DHT22;7842;50.904;6.670;2024-03-06T00:21:22;7.90;99.90
15481;DHT22;7842;50.904;6.670;2024-03-06T00:23:48;7.90;99.90
15481;DHT22;7842;50.904;6.670;2024-03-06T00:26:13;7.80;99.90
15481;DHT22;7842;50.904;6.670;2024-03-06T00:28:39;7.70;99.90
15481;DHT22;7842;50.904;6.670;2024-03-06T00:31:07;7.70;99.90
15481;DHT22;7842;50.904;6.670;2024-03-06T00:33:33;7.60;99.90
15481;DHT22;7842;50.904;6.670;2024-03-06T00:35:59;7.60;99.90
15481;DHT22;7842;50.904;6.670;2024-03-06T00:38:24;7.50;99.90
15481;DHT22;7842;50.904;6.670;2024-03-06T00:40:50;7.50;99.90
15481;DHT22;7842;50.904;6.670;2024-03-06T00:43:16;7.50;99.90
15481;DHT22;7842;50.904;6.670;2024-03-06T00:45:41;7.50;99.90
15481;DHT22;7842;50.904;6.670;2024-03-06T00:48:07;7.30;99.90
15481;DHT22;7842;50.904;6.670;2024-03-06T00:50:33;7.30;99.90
15481;DHT22;7842;50.904;6.670;2024-03-06T00:52:59;7.30;99.90
15481;DHT22;7842;50.904;6.670;2024-03-06T00:55:24;7.30;99.90
15481;DHT22;7842;50.904;6.670;2024-03-06T00:57:50;7.40;99.90
15481;DHT22;7842;50.904;6.670;2024-03-06T01:00:16;7.40;99.90
15481;DHT22;7842;50.904;6.670;2024-03-06T01:02:42;7.40;99.90
15481;DHT22;7842;50.904;6.670;2024-03-06T01:05:08;7.40;99.90
15481;DHT22;7842;50.904;6.670;2024-03-06T01:07:37;7.40;99.90
15481;DHT22;7842;50.904;6.670;2024-03-06T01:10:05;7.20;99.90
15481;DHT22;7842;50.904;6.670;2024-03-06T01:12:34;7.20;99.90
15481;DHT22;7842;50.904;6.670;2024-03-06T01:15:00;7.20;99.90
15481;DHT22;7842;50.904;6.670;2024-03-06T01:17:26;7.20;99.90
15481;DHT22;7842;50.904;6.670;2024-03-06T01:19:51;7.20;99.90
15481;DHT22;7842;50.904;6.670;2024-03-06T01:22:17;7.20;99.90
15481;DHT22;7842;50.904;6.670;2024-03-06T01:24:43;7.20;99.90
15481;DHT22;7842;50.904;6.670;2024-03-06T01:27:09;7.20;99.90
15481;DHT22;7842;50.904;6.670;2024-03-06T01:29:35;7.20;99.90
15481;DHT22;7842;50.904;6.670;2024-03-06T01:32:01;7.10;99.90
15481;DHT22;7842;50.904;6.670;2024-03-06T01:34:27;7.10;99.90
15481;DHT22;7842;50.904;6.670;2024-03-06T01:36:53;7.00;99.90
15481;DHT22;7842;50.904;6.670;2024-03-06T01:39:18;6.90;99.90
15481;DHT22;7842;50.904;6.670;2024-03-06T01:41:51;6.90;99.90
15481;DHT22;7842;50.904;6.670;2024-03-06T01:44:18;6.80;99.90
15481;DHT22;7842;50.904;6.670;2024-03-06T01:46:44;6.70;99.90
15481;DHT22;7842;50.904;6.670;2024-03-06T01:49:11;6.60;99.90
15481;DHT22;7842;50.904;6.670;2024-03-06T01:51:38;6.60;99.90
15481;DHT22;7842;50.904;6.670;2024-03-06T01:54:03;6.60;99.90
15481;DHT22;7842;50.904;6.670;2024-03-06T01:56:33;6.60;99.90
15481;DHT22;7842;50.904;6.670;2024-03-06T01:59:00;6.60;99.90
15481;DHT22;7842;50.904;6.670;2024-03-06T02:01:26;6.60;99.90
15481;DHT22;7842;50.904;6.670;2024-03-06T02:03:52;6.60;99.90
15481;DHT22;7842;50.904;6.670;2024-03-06T02:06:18;6.50;99.90
15481;DHT22;7842;50.904;6.670;2024-03-06T02:08:48;6.50;99.90
15481;DHT22;7842;50.904;6.670;2024-03-06T02:11:14;6.50;99.90
15481;DHT22;7842;50.904;6.670;2024-03-06T02:13:41;6.50;99.90
15481;DHT22;7842;50.904;6.670;2024-03-06T02:16:07;6.50;99.90
15481;DHT22;7842;50.904;6.670;2024-03-06T02:18:33;6.50;99.90
15481;DHT22;7842;50.904;6.670;2024-03-06T02:20:58;6.40;99.90
15481;DHT22;7842;50.904;6.670;2024-03-06T02:23:24;6.50;99.90
15481;DHT22;7842;50.904;6.670;2024-03-06T02:25:50;6.40;99.90
15481;DHT22;7842;50.904;6.670;2024-03-06T02:28:16;6.20;99.90
15481;DHT22;7842;50.904;6.670;2024-03-06T02:30:42;6.10;99.90
15481;DHT22;7842;50.904;6.670;2024-03-06T02:33:08;5.90;99.90
15481;DHT22;7842;50.904;6.670;2024-03-06T02:35:35;5.80;99.90
15481;DHT22;7842;50.904;6.670;2024-03-06T02:38:03;5.90;99.90
15481;DHT22;7842;50.904;6.670;2024-03-06T02:40:30;5.80;99.90
15481;DHT22;7842;50.904;6.670;2024-03-06T02:42:56;5.70;99.90
15481;DHT22;7842;50.904;6.670;2024-03-06T02:45:22;5.70;99.90
15481;DHT22;7842;50.904;6.670;2024-03-06T02:47:47;5.50;99.90
15481;DHT22;7842;50.904;6.670;2024-03-06T02:50:13;5.40;99.90
15481;DHT22;7842;50.904;6.670;2024-03-06T02:52:39;5.40;99.90
15481;DHT22;7842;50.904;6.670;2024-03-06T02:55:05;5.30;99.90
15481;DHT22;7842;50.904;6.670;2024-03-06T02:57:31;5.30;99.90
15481;DHT22;7842;50.904;6.670;2024-03-06T02:59:57;5.30;99.90
15481;DHT22;7842;50.904;6.670;2024-03-06T03:02:23;5.30;99.90
15481;DHT22;7842;50.904;6.670;2024-03-06T03:04:52;5.10;99.90
15481;DHT22;7842;50.904;6.670;2024-03-06T03:07:18;5.00;99.90
15481;DHT22;7842;50.904;6.670;2024-03-06T03:09:45;4.90;99.90
15481;DHT22;7842;50.904;6.670;2024-03-06T03:12:11;4.80;99.90
15481;DHT22;7842;50.904;6.670;2024-03-06T03:14:37;4.90;99.90
15481;DHT22;7842;50.904;6.670;2024-03-06T03:17:03;4.90;99.90
15481;DHT22;7842;50.904;6.670;2024-03-06T03:19:31;4.90;99.90
15481;DHT22;7842;50.904;6.670;2024-03-06T03:21:56;4.90;99.90
15481;DHT22;7842;50.904;6.670;2024-03-06T03:24:23;5.00;99.90
15481;DHT22;7842;50.904;6.670;2024-03-06T03:26:51;4.80;99.90
15481;DHT22;7842;50.904;6.670;2024-03-06T03:29:17;4.80;99.90
15481;DHT22;7842;50.904;6.670;2024-03-06T03:31:43;4.90;99.90
15481;DHT22;7842;50.904;6.670;2024-03-06T03:34:08;5.00;99.90
15481;DHT22;7842;50.904;6.670;2024-03-06T03:36:34;4.90;99.90
15481;DHT22;7842;50.904;6.670;2024-03-06T03:39:00;5.00;99.90
15481;DHT22;7842;50.904;6.670;2024-03-06T03:41:26;5.00;99.90
15481;DHT22;7842;50.904;6.670;2024-03-06T03:43:51;5.00;99.90
15481;DHT22;7842;50.904;6.670;2024-03-06T03:46:17;4.90;99.90
15481;DHT22;7842;50.904;6.670;2024-03-06T03:48:42;4.70;99.90
15481;DHT22;7842;50.904;6.670;2024-03-06T03:51:08;4.50;99.90
15481;DHT22;7842;50.904;6.670;2024-03-06T03:53:34;4.60;99.90
15481;DHT22;7842;50.904;6.670;2024-03-06T03:56:01;4.70;99.90
15481;DHT22;7842;50.904;6.670;2024-03-06T03:58:30;4.80;99.90
15481;DHT22;7842;50.904;6.670;2024-03-06T04:00:56;4.80;99.90
15481;DHT22;7842;50.904;6.670;2024-03-06T04:03:22;4.80;99.90
15481;DHT22;7842;50.904;6.670;2024-03-06T04:05:49;4.80;99.90
15481;DHT22;7842;50.904;6.670;2024-03-06T04:08:16;4.70;99.90
15481;DHT22;7842;50.904;6.670;2024-03-06T04:10:43;4.60;99.90
15481;DHT22;7842;50.904;6.670;2024-03-06T04:13:12;4.50;99.90
15481;DHT22;7842;50.904;6.670;2024-03-06T04:15:38;4.50;99.90
15481;DHT22;7842;50.904;6.670;2024-03-06T04:18:04;4.60;99.90
15481;DHT22;7842;50.904;6.670;2024-03-06T04:20:29;4.70;99.90
15481;DHT22;7842;50.904;6.670;2024-03-06T04:22:55;4.90;99.90
15481;DHT22;7842;50.904;6.670;2024-03-06T04:25:20;4.90;99.90
15481;DHT22;7842;50.904;6.670;2024-03-06T04:27:46;5.00;99.90
15481;DHT22;7842;50.904;6.670;2024-03-06T04:30:12;5.10;99.90
15481;DHT22;7842;50.904;6.670;2024-03-06T04:32:38;5.10;99.90
15481;DHT22;7842;50.904;6.670;2024-03-06T04:35:04;5.10;99.90
15481;DHT22;7842;50.904;6.670;2024-03-06T04:37:30;4.80;99.90
15481;DHT22;7842;50.904;6.670;2024-03-06T04:39:56;4.80;99.90
15481;DHT22;7842;50.904;6.670;2024-03-06T04:42:21;4.70;99.90
15481;DHT22;7842;50.904;6.670;2024-03-06T04:44:48;4.70;99.90
15481;DHT22;7842;50.904;6.670;2024-03-06T04:47:13;4.70;99.90
15481;DHT22;7842;50.904;6.670;2024-03-06T04:49:39;4.70;99.90
15481;DHT22;7842;50.904;6.670;2024-03-06T04:52:04;4.60;99.90
15481;DHT22;7842;50.904;6.670;2024-03-06T04:54:30;4.80;99.90
15481;DHT22;7842;50.904;6.670;2024-03-06T04:56:56;4.80;99.90
15481;DHT22;7842;50.904;6.670;2024-03-06T04:59:21;4.80;99.90
15481;DHT22;7842;50.904;6.670;2024-03-06T05:01:47;4.80;99.90
15481;DHT22;7842;50.904;6.670;2024-03-06T05:04:13;4.90;99.90
15481;DHT22;7842;50.904;6.670;2024-03-06T05:06:38;4.90;99.90
15481;DHT22;7842;50.904;6.670;2024-03-06T05:09:04;5.00;99.90
15481;DHT22;7842;50.904;6.670;2024-03-06T05:11:31;5.00;99.90
15481;DHT22;7842;50.904;6.670;2024-03-06T05:14:00;5.00;99.90
15481;DHT22;7842;50.904;6.670;2024-03-06T05:16:26;5.00;99.90
15481;DHT22;7842;50.904;6.670;2024-03-06T05:18:52;5.00;99.90
15481;DHT22;7842;50.904;6.670;2024-03-06T05:21:18;5.00;99.90
15481;DHT22;7842;50.904;6.670;2024-03-06T05:23:44;5.00;99.90
15481;DHT22;7842;50.904;6.670;2024-03-06T05:26:10;5.10;99.90
15481;DHT22;7842;50.904;6.670;2024-03-06T05:28:36;5.00;99.90
15481;DHT22;7842;50.904;6.670;2024-03-06T05:31:17;5.00;99.90
15481;DHT22;7842;50.904;6.670;2024-03-06T05:33:44;4.90;99.90
15481;DHT22;7842;50.904;6.670;2024-03-06T05:36:10;4.90;99.90
15481;DHT22;7842;50.904;6.670;2024-03-06T05:38:38;4.80;99.90
15481;DHT22;7842;50.904;6.670;2024-03-06T05:41:04;4.90;99.90
15481;DHT22;7842;50.904;6.670;2024-03-06T05:43:29;4.90;99.90
15481;DHT22;7842;50.904;6.670;2024-03-06T05:45:55;4.80;99.90
15481;DHT22;7842;50.904;6.670;2024-03-06T05:48:21;4.80;99.90
15481;DHT22;7842;50.904;6.670;2024-03-06T05:50:46;4.80;99.90
15481;DHT22;7842;50.904;6.670;2024-03-06T05:53:12;4.90;99.90
15481;DHT22;7842;50.904;6.670;2024-03-06T05:55:37;4.90;99.90
15481;DHT22;7842;50.904;6.670;2024-03-06T05:58:03;4.90;99.90
15481;DHT22;7842;50.904;6.670;2024-03-06T06:00:31;5.00;99.90
15481;DHT22;7842;50.904;6.670;2024-03-06T06:02:56;4.90;99.90
15481;DHT22;7842;50.904;6.670;2024-03-06T06:05:22;4.90;99.90
15481;DHT22;7842;50.904;6.670;2024-03-06T06:07:50;4.90;99.90
15481;DHT22;7842;50.904;6.670;2024-03-06T06:10:15;4.90;99.90
15481;DHT22;7842;50.904;6.670;2024-03-06T06:12:42;4.90;99.90
15481;DHT22;7842;50.904;6.670;2024-03-06T06:15:09;4.90;99.90
15481;DHT22;7842;50.904;6.670;2024-03-06T06:17:36;5.00;99.90
15481;DHT22;7842;50.904;6.670;2024-03-06T06:20:05;5.00;99.90
15481;DHT22;7842;50.904;6.670;2024-03-06T06:22:36;5.00;99.90
15481;DHT22;7842;50.904;6.670;2024-03-06T06:25:01;5.10;99.90
15481;DHT22;7842;50.904;6.670;2024-03-06T06:27:29;5.10;99.90
15481;DHT22;7842;50.904;6.670;2024-03-06T06:29:54;5.20;99.90
15481;DHT22;7842;50.904;6.670;2024-03-06T06:32:21;5.30;99.90
15481;DHT22;7842;50.904;6.670;2024-03-06T06:34:46;5.30;99.90
15481;DHT22;7842;50.904;6.670;2024-03-06T06:37:12;5.30;99.90
15481;DHT22;7842;50.904;6.670;2024-03-06T06:39:38;5.70;99.90
15481;DHT22;7842;50.904;6.670;2024-03-06T06:42:03;6.10;99.90
15481;DHT22;7842;50.904;6.670;2024-03-06T06:44:29;6.10;99.90
15481;DHT22;7842;50.904;6.670;2024-03-06T06:46:55;6.20;99.90
15481;DHT22;7842;50.904;6.670;2024-03-06T06:49:21;6.20;99.90
15481;DHT22;7842;50.904;6.670;2024-03-06T06:51:47;6.30;99.90
15481;DHT22;7842;50.904;6.670;2024-03-06T06:54:14;6.60;99.90
15481;DHT22;7842;50.904;6.670;2024-03-06T06:56:40;6.70;99.90
15481;DHT22;7842;50.904;6.670;2024-03-06T06:59:05;6.50;99.90
15481;DHT22;7842;50.904;6.670;2024-03-06T07:01:31;6.30;99.90
15481;DHT22;7842;50.904;6.670;2024-03-06T07:03:58;6.50;99.90
15481;DHT22;7842;50.904;6.670;2024-03-06T07:06:24;6.80;99.90
15481;DHT22;7842;50.904;6.670;2024-03-06T07:08:50;6.80;99.90
15481;DHT22;7842;50.904;6.670;2024-03-06T07:11:17;6.60;99.90
15481;DHT22;7842;50.904;6.670;2024-03-06T07:13:44;6.50;99.90
15481;DHT22;7842;50.904;6.670;2024-03-06T07:16:09;6.60;99.90
15481;DHT22;7842;50.904;6.670;2024-03-06T07:18:35;6.70;99.90
15481;DHT22;7842;50.904;6.670;2024-03-06T07:21:00;6.80;99.90
15481;DHT22;7842;50.904;6.670;2024-03-06T07:23:26;6.90;99.90
15481;DHT22;7842;50.904;6.670;2024-03-06T07:25:52;6.90;99.90
15481;DHT22;7842;50.904;6.670;2024-03-06T07:28:17;7.10;99.90
15481;DHT22;7842;50.904;6.670;2024-03-06T07:30:44;7.20;99.90
15481;DHT22;7842;50.904;6.670;2024-03-06T07:33:10;7.40;99.90
15481;DHT22;7842;50.904;6.670;2024-03-06T07:35:35;7.50;99.90
15481;DHT22;7842;50.904;6.670;2024-03-06T07:38:02;7.70;99.90
15481;DHT22;7842;50.904;6.670;2024-03-06T07:40:30;7.70;99.90
15481;DHT22;7842;50.904;6.670;2024-03-06T07:42:55;7.80;99.90
15481;DHT22;7842;50.904;6.670;2024-03-06T07:45:21;8.00;99.90
15481;DHT22;7842;50.904;6.670;2024-03-06T07:47:46;8.10;99.90
15481;DHT22;7842;50.904;6.670;2024-03-06T07:50:13;8.10;99.90
15481;DHT22;7842;50.904;6.670;2024-03-06T07:52:44;8.30;99.90
15481;DHT22;7842;50.904;6.670;2024-03-06T07:55:10;8.50;99.90
15481;DHT22;7842;50.904;6.670;2024-03-06T07:57:36;8.60;99.90
15481;DHT22;7842;50.904;6.670;2024-03-06T08:00:02;8.60;99.90
15481;DHT22;7842;50.904;6.670;2024-03-06T08:02:33;8.80;99.90
15481;DHT22;7842;50.904;6.670;2024-03-06T08:05:00;8.80;99.90
15481;DHT22;7842;50.904;6.670;2024-03-06T08:07:26;8.70;99.90
15481;DHT22;7842;50.904;6.670;2024-03-06T08:09:52;8.70;99.90
15481;DHT22;7842;50.904;6.670;2024-03-06T08:12:17;8.50;99.90
15481;DHT22;7842;50.904;6.670;2024-03-06T08:14:43;8.70;99.90
15481;DHT22;7842;50.904;6.670;2024-03-06T08:17:08;9.00;99.90
15481;DHT22;7842;50.904;6.670;2024-03-06T08:19:34;9.00;99.90
15481;DHT22;7842;50.904;6.670;2024-03-06T08:22:00;9.00;99.90
15481;DHT22;7842;50.904;6.670;2024-03-06T08:24:26;9.10;99.90
15481;DHT22;7842;50.904;6.670;2024-03-06T08:26:52;9.20;99.90
15481;DHT22;7842;50.904;6.670;2024-03-06T08:29:18;9.10;99.90
15481;DHT22;7842;50.904;6.670;2024-03-06T08:31:43;9.00;99.90
15481;DHT22;7842;50.904;6.670;2024-03-06T08:34:09;9.20;99.90
15481;DHT22;7842;50.904;6.670;2024-03-06T08:36:34;9.10;99.90
15481;DHT22;7842;50.904;6.670;2024-03-06T08:39:00;9.10;99.90
15481;DHT22;7842;50.904;6.670;2024-03-06T08:41:26;9.00;99.90
15481;DHT22;7842;50.904;6.670;2024-03-06T08:43:51;9.20;99.90
15481;DHT22;7842;50.904;6.670;2024-03-06T08:46:17;9.20;99.90
15481;DHT22;7842;50.904;6.670;2024-03-06T08:48:43;9.30;99.90
15481;DHT22;7842;50.904;6.670;2024-03-06T08:51:08;9.30;99.90
15481;DHT22;7842;50.904;6.670;2024-03-06T08:53:37;9.40;99.90
15481;DHT22;7842;50.904;6.670;2024-03-06T08:56:03;9.30;99.90
15481;DHT22;7842;50.904;6.670;2024-03-06T08:58:29;9.30;99.90
15481;DHT22;7842;50.904;6.670;2024-03-06T09:00:55;9.40;99.90
15481;DHT22;7842;50.904;6.670;2024-03-06T09:03:20;9.50;99.90
15481;DHT22;7842;50.904;6.670;2024-03-06T09:05:46;9.40;99.90
15481;DHT22;7842;50.904;6.670;2024-03-06T09:08:11;9.30;99.90
15481;DHT22;7842;50.904;6.670;2024-03-06T09:10:37;9.40;99.90
15481;DHT22;7842;50.904;6.670;2024-03-06T09:13:03;9.50;99.90
15481;DHT22;7842;50.904;6.670;2024-03-06T09:15:29;9.80;99.90
15481;DHT22;7842;50.904;6.670;2024-03-06T09:17:55;10.10;99.90
15481;DHT22;7842;50.904;6.670;2024-03-06T09:20:20;10.10;99.90
15481;DHT22;7842;50.904;6.670;2024-03-06T09:22:48;10.30;99.90
15481;DHT22;7842;50.904;6.670;2024-03-06T09:25:34;10.20;99.90
15481;DHT22;7842;50.904;6.670;2024-03-06T09:28:00;10.20;99.90
15481;DHT22;7842;50.904;6.670;2024-03-06T09:30:30;10.40;99.90
15481;DHT22;7842;50.904;6.670;2024-03-06T09:32:55;10.30;99.90
15481;DHT22;7842;50.904;6.670;2024-03-06T09:35:21;10.30;99.90
15481;DHT22;7842;50.904;6.670;2024-03-06T09:37:47;10.20;99.90
15481;DHT22;7842;50.904;6.670;2024-03-06T09:40:20;10.30;99.90
15481;DHT22;7842;50.904;6.670;2024-03-06T09:42:46;10.30;99.90
15481;DHT22;7842;50.904;6.670;2024-03-06T09:45:11;10.50;99.90
15481;DHT22;7842;50.904;6.670;2024-03-06T09:47:38;10.70;99.90
15481;DHT22;7842;50.904;6.670;2024-03-06T09:50:08;10.70;99.90
15481;DHT22;7842;50.904;6.670;2024-03-06T09:52:36;10.60;99.90
15481;DHT22;7842;50.904;6.670;2024-03-06T09:55:02;10.50;99.90
15481;DHT22;7842;50.904;6.670;2024-03-06T09:57:29;10.70;99.90
15481;DHT22;7842;50.904;6.670;2024-03-06T09:59:55;10.80;99.90
15481;DHT22;7842;50.904;6.670;2024-03-06T10:02:49;11.00;99.90
15481;DHT22;7842;50.904;6.670;2024-03-06T10:05:23;11.10;99.90
15481;DHT22;7842;50.904;6.670;2024-03-06T10:07:50;11.30;99.90
15481;DHT22;7842;50.904;6.670;2024-03-06T10:10:16;11.20;99.90
15481;DHT22;7842;50.904;6.670;2024-03-06T10:12:44;11.30;99.90
15481;DHT22;7842;50.904;6.670;2024-03-06T10:15:10;11.20;99.90
15481;DHT22;7842;50.904;6.670;2024-03-06T10:17:38;11.20;99.90
15481;DHT22;7842;50.904;6.670;2024-03-06T10:20:23;11.00;99.90
15481;DHT22;7842;50.904;6.670;2024-03-06T10:22:53;10.90;99.90
15481;DHT22;7842;50.904;6.670;2024-03-06T10:25:20;10.90;99.90
15481;DHT22;7842;50.904;6.670;2024-03-06T10:28:02;10.90;99.90
15481;DHT22;7842;50.904;6.670;2024-03-06T10:30:28;10.70;99.90
15481;DHT22;7842;50.904;6.670;2024-03-06T10:32:54;10.70;99.90
15481;DHT22;7842;50.904;6.670;2024-03-06T10:35:20;10.80;99.90
15481;DHT22;7842;50.904;6.670;2024-03-06T10:37:46;10.70;99.90
15481;DHT22;7842;50.904;6.670;2024-03-06T10:40:15;10.90;99.90
15481;DHT22;7842;50.904;6.670;2024-03-06T10:42:41;11.00;99.90
15481;DHT22;7842;50.904;6.670;2024-03-06T10:45:13;11.00;99.90
15481;DHT22;7842;50.904;6.670;2024-03-06T10:47:40;11.10;99.90
15481;DHT22;7842;50.904;6.670;2024-03-06T10:50:06;11.10;99.90
15481;DHT22;7842;50.904;6.670;2024-03-06T10:52:38;11.00;99.90
15481;DHT22;7842;50.904;6.670;2024-03-06T10:55:06;11.10;99.90
15481;DHT22;7842;50.904;6.670;2024-03-06T10:57:32;11.20;99.90
15481;DHT22;7842;50.904;6.670;2024-03-06T10:59:59;11.20;99.90
15481;DHT22;7842;50.904;6.670;2024-03-06T11:02:27;11.20;99.90
15481;DHT22;7842;50.904;6.670;2024-03-06T11:04:53;11.10;99.90
15481;DHT22;7842;50.904;6.670;2024-03-06T11:07:19;10.90;99.90
15481;DHT22;7842;50.904;6.670;2024-03-06T11:09:45;11.10;99.90
15481;DHT22;7842;50.904;6.670;2024-03-06T11:12:37;11.20;99.90
15481;DHT22;7842;50.904;6.670;2024-03-06T11:15:16;11.20;99.90
15481;DHT22;7842;50.904;6.670;2024-03-06T11:17:42;11.30;99.90
15481;DHT22;7842;50.904;6.670;2024-03-06T11:20:12;11.30;99.90
15481;DHT22;7842;50.904;6.670;2024-03-06T11:28:27;11.60;99.90
15481;DHT22;7842;50.904;6.670;2024-03-06T11:30:58;12.10;99.90
15481;DHT22;7842;50.904;6.670;2024-03-06T11:33:41;12.30;99.90
15481;DHT22;7842;50.904;6.670;2024-03-06T11:36:22;12.40;99.90
15481;DHT22;7842;50.904;6.670;2024-03-06T11:39:05;12.60;99.90
15481;DHT22;7842;50.904;6.670;2024-03-06T11:41:47;12.20;99.90
15481;DHT22;7842;50.904;6.670;2024-03-06T11:44:18;12.50;99.90
15481;DHT22;7842;50.904;6.670;2024-03-06T11:49:28;12.90;99.90
15481;DHT22;7842;50.904;6.670;2024-03-06T11:52:14;12.90;99.90
15481;DHT22;7842;50.904;6.670;2024-03-06T11:54:40;12.90;99.90
15481;DHT22;7842;50.904;6.670;2024-03-06T11:57:06;12.60;99.90
15481;DHT22;7842;50.904;6.670;2024-03-06T11:59:34;12.50;99.90
15481;DHT22;7842;50.904;6.670;2024-03-06T12:02:03;12.30;99.90
15481;DHT22;7842;50.904;6.670;2024-03-06T12:04:35;12.20;99.90
15481;DHT22;7842;50.904;6.670;2024-03-06T12:07:03;12.10;99.90
15481;DHT22;7842;50.904;6.670;2024-03-06T12:09:37;12.20;99.90
15481;DHT22;7842;50.904;6.670;2024-03-06T12:12:03;12.30;99.90
15481;DHT22;7842;50.904;6.670;2024-03-06T12:14:29;12.30;99.90
15481;DHT22;7842;50.904;6.670;2024-03-06T12:16:59;12.10;99.90
15481;DHT22;7842;50.904;6.670;2024-03-06T12:19:26;12.10;99.90
15481;DHT22;7842;50.904;6.670;2024-03-06T12:21:53;11.80;99.90
15481;DHT22;7842;50.904;6.670;2024-03-06T12:24:19;12.00;99.90
15481;DHT22;7842;50.904;6.670;2024-03-06T12:26:46;11.60;99.90
15481;DHT22;7842;50.904;6.670;2024-03-06T12:29:17;11.90;99.90
15481;DHT22;7842;50.904;6.670;2024-03-06T12:31:44;11.70;99.90
15481;DHT22;7842;50.904;6.670;2024-03-06T12:34:13;11.90;99.90
15481;DHT22;7842;50.904;6.670;2024-03-06T12:36:39;11.80;99.90
15481;DHT22;7842;50.904;6.670;2024-03-06T12:39:06;11.70;99.90
15481;DHT22;7842;50.904;6.670;2024-03-06T12:41:41;11.60;99.90
15481;DHT22;7842;50.904;6.670;2024-03-06T12:44:07;11.60;99.90
15481;DHT22;7842;50.904;6.670;2024-03-06T12:46:33;12.20;99.90
15481;DHT22;7842;50.904;6.670;2024-03-06T12:48:59;12.20;99.90
15481;DHT22;7842;50.904;6.670;2024-03-06T12:51:25;12.00;99.90
15481;DHT22;7842;50.904;6.670;2024-03-06T12:53:51;11.90;99.90
15481;DHT22;7842;50.904;6.670;2024-03-06T12:56:17;12.20;99.90
15481;DHT22;7842;50.904;6.670;2024-03-06T12:58:43;12.20;99.90
15481;DHT22;7842;50.904;6.670;2024-03-06T13:01:09;12.30;99.90
15481;DHT22;7842;50.904;6.670;2024-03-06T13:03:35;12.30;99.90
15481;DHT22;7842;50.904;6.670;2024-03-06T13:06:02;12.20;99.90
15481;DHT22;7842;50.904;6.670;2024-03-06T13:08:28;11.90;99.90
15481;DHT22;7842;50.904;6.670;2024-03-06T13:10:54;11.90;99.90
15481;DHT22;7842;50.904;6.670;2024-03-06T13:13:19;11.80;99.90
15481;DHT22;7842;50.904;6.670;2024-03-06T13:15:46;12.00;99.90
15481;DHT22;7842;50.904;6.670;2024-03-06T13:18:13;12.20;99.90
15481;DHT22;7842;50.904;6.670;2024-03-06T13:20:39;12.20;99.90
15481;DHT22;7842;50.904;6.670;2024-03-06T13:23:05;12.40;99.90
15481;DHT22;7842;50.904;6.670;2024-03-06T13:25:31;12.50;99.90
15481;DHT22;7842;50.904;6.670;2024-03-06T13:27:57;12.70;99.90
15481;DHT22;7842;50.904;6.670;2024-03-06T13:30:22;12.60;99.90
15481;DHT22;7842;50.904;6.670;2024-03-06T13:32:50;12.30;99.90
15481;DHT22;7842;50.904;6.670;2024-03-06T13:35:15;12.40;99.90
15481;DHT22;7842;50.904;6.670;2024-03-06T13:37:45;12.10;99.90
15481;DHT22;7842;50.904;6.670;2024-03-06T13:40:11;12.00;99.90
15481;DHT22;7842;50.904;6.670;2024-03-06T13:42:42;12.20;99.90
15481;DHT22;7842;50.904;6.670;2024-03-06T13:45:08;12.20;99.90
15481;DHT22;7842;50.904;6.670;2024-03-06T13:47:38;12.40;99.90
15481;DHT22;7842;50.904;6.670;2024-03-06T13:50:19;12.30;99.90
15481;DHT22;7842;50.904;6.670;2024-03-06T13:52:45;12.00;99.90
15481;DHT22;7842;50.904;6.670;2024-03-06T13:55:10;12.10;99.90
15481;DHT22;7842;50.904;6.670;2024-03-06T13:57:37;12.30;99.90
15481;DHT22;7842;50.904;6.670;2024-03-06T14:00:09;12.10;99.90
15481;DHT22;7842;50.904;6.670;2024-03-06T14:02:45;11.70;99.90
15481;DHT22;7842;50.904;6.670;2024-03-06T14:05:11;11.80;99.90
15481;DHT22;7842;50.904;6.670;2024-03-06T14:07:38;12.00;99.90
15481;DHT22;7842;50.904;6.670;2024-03-06T14:10:04;12.10;99.90
15481;DHT22;7842;50.904;6.670;2024-03-06T14:12:30;12.00;99.90
15481;DHT22;7842;50.904;6.670;2024-03-06T14:18:05;11.60;99.90
15481;DHT22;7842;50.904;6.670;2024-03-06T14:20:31;11.50;99.90
15481;DHT22;7842;50.904;6.670;2024-03-06T14:22:57;11.90;99.90
15481;DHT22;7842;50.904;6.670;2024-03-06T14:25:22;12.00;99.90
15481;DHT22;7842;50.904;6.670;2024-03-06T14:27:48;12.00;99.90
15481;DHT22;7842;50.904;6.670;2024-03-06T14:30:14;12.20;99.90
15481;DHT22;7842;50.904;6.670;2024-03-06T14:32:40;12.40;99.90
15481;DHT22;7842;50.904;6.670;2024-03-06T14:35:06;12.50;99.90
15481;DHT22;7842;50.904;6.670;2024-03-06T14:37:32;12.60;99.90
15481;DHT22;7842;50.904;6.670;2024-03-06T14:39:58;12.40;99.90
15481;DHT22;7842;50.904;6.670;2024-03-06T14:42:24;12.50;99.90
15481;DHT22;7842;50.904;6.670;2024-03-06T14:44:49;12.40;99.90
15481;DHT22;7842;50.904;6.670;2024-03-06T14:47:15;12.60;99.90
15481;DHT22;7842;50.904;6.670;2024-03-06T14:49:44;12.50;99.90
15481;DHT22;7842;50.904;6.670;2024-03-06T14:52:13;12.50;99.90
15481;DHT22;7842;50.904;6.670;2024-03-06T14:54:39;12.40;99.90
15481;DHT22;7842;50.904;6.670;2024-03-06T14:57:06;12.50;99.90
15481;DHT22;7842;50.904;6.670;2024-03-06T14:59:32;12.50;99.90
15481;DHT22;7842;50.904;6.670;2024-03-06T15:01:58;12.80;99.90
15481;DHT22;7842;50.904;6.670;2024-03-06T15:04:23;12.70;99.90
15481;DHT22;7842;50.904;6.670;2024-03-06T15:06:49;13.00;99.90
15481;DHT22;7842;50.904;6.670;2024-03-06T15:09:15;12.90;99.90
15481;DHT22;7842;50.904;6.670;2024-03-06T15:11:47;12.90;99.90
15481;DHT22;7842;50.904;6.670;2024-03-06T15:14:13;12.80;99.90
15481;DHT22;7842;50.904;6.670;2024-03-06T15:16:39;12.80;99.90
15481;DHT22;7842;50.904;6.670;2024-03-06T15:19:05;13.10;99.90
15481;DHT22;7842;50.904;6.670;2024-03-06T15:21:31;12.90;99.90
15481;DHT22;7842;50.904;6.670;2024-03-06T15:23:57;12.50;99.90
15481;DHT22;7842;50.904;6.670;2024-03-06T15:26:23;12.50;99.90
15481;DHT22;7842;50.904;6.670;2024-03-06T15:28:48;12.60;99.90
15481;DHT22;7842;50.904;6.670;2024-03-06T15:31:14;12.80;99.90
15481;DHT22;7842;50.904;6.670;2024-03-06T15:33:40;12.60;99.90
15481;DHT22;7842;50.904;6.670;2024-03-06T15:36:06;12.70;99.90
15481;DHT22;7842;50.904;6.670;2024-03-06T15:38:31;12.70;99.90
15481;DHT22;7842;50.904;6.670;2024-03-06T15:40:57;12.80;99.90
15481;DHT22;7842;50.904;6.670;2024-03-06T15:43:23;12.90;99.90
15481;DHT22;7842;50.904;6.670;2024-03-06T15:45:49;12.80;99.90
15481;DHT22;7842;50.904;6.670;2024-03-06T15:48:14;12.60;99.90
15481;DHT22;7842;50.904;6.670;2024-03-06T15:50:43;12.80;99.90
15481;DHT22;7842;50.904;6.670;2024-03-06T15:53:09;13.00;99.90
15481;DHT22;7842;50.904;6.670;2024-03-06T15:55:36;12.90;99.90
15481;DHT22;7842;50.904;6.670;2024-03-06T15:58:03;12.90;99.90
15481;DHT22;7842;50.904;6.670;2024-03-06T16:00:29;12.90;99.90
15481;DHT22;7842;50.904;6.670;2024-03-06T16:02:54;13.00;99.90
15481;DHT22;7842;50.904;6.670;2024-03-06T16:05:20;13.00;99.90